BGBW

Narsarsuaq Airport

Airport
ICAO code
BGBW
IATA Code
UAK
Summary
ICAO Region
NAT
ICAO Territory
Location

Narsarsuaq,

Serving
Narsarsuaq
Elevation
112 ft
Coordinates
61° 9' 38" N , 45° 25' 32" W
KCC
ET
Metar
Observation
BGBW 081450Z 24004KT 210V280 9999 FEW024 SCT210 13/03 Q0992
Station
Narsarsuaq
Date/Time
2022-08-08 14:50:00
Wind direction
240°
Wind speed
04 kts
Lowest cloud amount
few clouds
Temperature
13°C
Dew point
3°C
Humidity
50%
QNH
992 hPa
Weather condition
n/a

Description

Narsarsuaq Airport is an airport located in Narsarsuaq, a settlement in the Kujalleq municipality in southern Greenland.

Climatology

Tundra Climate (Köppen climate classification ET) - average temperature below 10°C in all twelve months of the year with very little precipitation.

Runways

Designator Length Width Surface Rops
7/25 1830 45 CON No/No

Airport map

Aerial View

SKYbrary Partners:

Safety knowledge contributed by: